KCDC

Cedar City Regional Airport

Cedar City, Utah, USA
METAR KCDC 150053Z AUTO 25007KT 10SM FEW120 24/09 A3009 RMK AO2 LTG DSNT SW AND W RAE07 SLP119 P0000 T02390089
Observed Flight Rules
Aug-15 @ 00:53 UTC (11 minutes ago) Visual Flight Rules
Wind Visibility Clouds
250° at 7 knots 10 miles
  • Few at 12,000' AGL
Temperatures Readings Precipitation
Current 24°C / 75°F
Dewpoint 9°C / 48°F
Humidity 39%
Altimeter 30.09" Hg
Pressure 1011.9 hPa
Elevation 1714
Current Rain 0.005
METAR KCDC 150053Z AUTO 25007KT 10SM FEW120 24/09 A3009 RMK AO2 LTG DSNT SW AND W RAE07 SLP119 P0000 T02390089
Observed Flight Rules
Aug-15 @ 00:53 UTC
(11 minutes ago)
VFR
Wind Visibility
250° at 7 knots 10 miles
Clouds
  • Few at 12,000' AGL
Temperature Dewpoint
24°C / 75°F 9°C / 48°F
Humidity Altimeter Pressure
39% 30.09" Hg 1011.9 hPa
Current Rain
0.005